sensor_id;sensor_type;location;lat;lon;timestamp;P1;durP1;ratioP1;P2;durP2;ratioP2
5277;SDS011;2662;51.194;6.614;2022-12-20T00:00:46;3.33;;;1.50;;
5277;SDS011;2662;51.194;6.614;2022-12-20T00:03:15;3.80;;;1.60;;
5277;SDS011;2662;51.194;6.614;2022-12-20T00:05:42;2.27;;;1.43;;
5277;SDS011;2662;51.194;6.614;2022-12-20T00:08:09;6.47;;;1.73;;
5277;SDS011;2662;51.194;6.614;2022-12-20T00:10:36;9.30;;;1.53;;
5277;SDS011;2662;51.194;6.614;2022-12-20T00:13:03;5.90;;;1.63;;
5277;SDS011;2662;51.194;6.614;2022-12-20T00:15:30;3.80;;;1.53;;
5277;SDS011;2662;51.194;6.614;2022-12-20T00:17:57;3.40;;;1.53;;
5277;SDS011;2662;51.194;6.614;2022-12-20T00:20:26;2.37;;;1.70;;
5277;SDS011;2662;51.194;6.614;2022-12-20T00:22:54;2.13;;;1.37;;
5277;SDS011;2662;51.194;6.614;2022-12-20T00:25:21;2.50;;;1.33;;
5277;SDS011;2662;51.194;6.614;2022-12-20T00:27:49;3.80;;;1.50;;
5277;SDS011;2662;51.194;6.614;2022-12-20T00:30:16;6.43;;;1.77;;
5277;SDS011;2662;51.194;6.614;2022-12-20T00:32:43;1.60;;;1.37;;
5277;SDS011;2662;51.194;6.614;2022-12-20T00:35:11;4.37;;;1.67;;
5277;SDS011;2662;51.194;6.614;2022-12-20T00:37:39;3.90;;;1.30;;
5277;SDS011;2662;51.194;6.614;2022-12-20T00:40:06;4.43;;;1.57;;
5277;SDS011;2662;51.194;6.614;2022-12-20T00:42:33;4.40;;;1.40;;
5277;SDS011;2662;51.194;6.614;2022-12-20T00:45:01;2.20;;;1.37;;
5277;SDS011;2662;51.194;6.614;2022-12-20T00:47:28;1.47;;;1.20;;
5277;SDS011;2662;51.194;6.614;2022-12-20T00:49:55;5.73;;;1.60;;
5277;SDS011;2662;51.194;6.614;2022-12-20T00:52:22;2.30;;;1.70;;
5277;SDS011;2662;51.194;6.614;2022-12-20T00:54:50;1.60;;;1.33;;
5277;SDS011;2662;51.194;6.614;2022-12-20T00:57:17;2.50;;;1.67;;
5277;SDS011;2662;51.194;6.614;2022-12-20T00:59:43;3.87;;;1.37;;
5277;SDS011;2662;51.194;6.614;2022-12-20T01:02:10;3.80;;;1.23;;
5277;SDS011;2662;51.194;6.614;2022-12-20T01:04:37;1.40;;;1.30;;
5277;SDS011;2662;51.194;6.614;2022-12-20T01:07:04;1.27;;;1.10;;
5277;SDS011;2662;51.194;6.614;2022-12-20T01:09:30;6.40;;;1.50;;
5277;SDS011;2662;51.194;6.614;2022-12-20T01:11:58;1.43;;;1.10;;
5277;SDS011;2662;51.194;6.614;2022-12-20T01:14:25;1.43;;;1.30;;
5277;SDS011;2662;51.194;6.614;2022-12-20T01:16:52;1.80;;;1.30;;
5277;SDS011;2662;51.194;6.614;2022-12-20T01:19:19;2.40;;;1.17;;
5277;SDS011;2662;51.194;6.614;2022-12-20T01:21:45;1.13;;;1.03;;
5277;SDS011;2662;51.194;6.614;2022-12-20T01:24:12;1.73;;;1.33;;
5277;SDS011;2662;51.194;6.614;2022-12-20T01:26:40;3.17;;;1.00;;
5277;SDS011;2662;51.194;6.614;2022-12-20T01:29:08;3.40;;;1.00;;
5277;SDS011;2662;51.194;6.614;2022-12-20T01:31:35;2.20;;;1.23;;
5277;SDS011;2662;51.194;6.614;2022-12-20T01:34:02;5.27;;;2.00;;
5277;SDS011;2662;51.194;6.614;2022-12-20T01:36:29;2.80;;;1.40;;
5277;SDS011;2662;51.194;6.614;2022-12-20T01:38:59;1.90;;;1.30;;
5277;SDS011;2662;51.194;6.614;2022-12-20T01:41:28;2.03;;;1.53;;
5277;SDS011;2662;51.194;6.614;2022-12-20T01:43:57;1.40;;;1.30;;
5277;SDS011;2662;51.194;6.614;2022-12-20T01:46:27;3.00;;;1.33;;
5277;SDS011;2662;51.194;6.614;2022-12-20T01:48:55;1.73;;;1.40;;
5277;SDS011;2662;51.194;6.614;2022-12-20T01:51:26;3.07;;;1.43;;
5277;SDS011;2662;51.194;6.614;2022-12-20T01:53:58;4.40;;;1.97;;
5277;SDS011;2662;51.194;6.614;2022-12-20T01:56:29;2.57;;;1.40;;
5277;SDS011;2662;51.194;6.614;2022-12-20T01:58:56;3.13;;;1.40;;
5277;SDS011;2662;51.194;6.614;2022-12-20T02:01:24;4.90;;;1.87;;
5277;SDS011;2662;51.194;6.614;2022-12-20T02:03:54;1.50;;;1.40;;
5277;SDS011;2662;51.194;6.614;2022-12-20T02:06:21;1.50;;;1.40;;
5277;SDS011;2662;51.194;6.614;2022-12-20T02:08:49;5.00;;;1.70;;
5277;SDS011;2662;51.194;6.614;2022-12-20T02:11:22;2.20;;;1.43;;
5277;SDS011;2662;51.194;6.614;2022-12-20T02:14:04;6.50;;;1.77;;
5277;SDS011;2662;51.194;6.614;2022-12-20T02:16:38;5.20;;;1.50;;
5277;SDS011;2662;51.194;6.614;2022-12-20T02:19:14;2.90;;;1.40;;
5277;SDS011;2662;51.194;6.614;2022-12-20T02:21:50;1.83;;;1.40;;
5277;SDS011;2662;51.194;6.614;2022-12-20T02:24:42;2.40;;;1.70;;
5277;SDS011;2662;51.194;6.614;2022-12-20T02:30:20;3.97;;;1.50;;
5277;SDS011;2662;51.194;6.614;2022-12-20T02:32:53;1.50;;;1.40;;
5277;SDS011;2662;51.194;6.614;2022-12-20T02:35:25;3.40;;;1.50;;
5277;SDS011;2662;51.194;6.614;2022-12-20T02:37:55;1.73;;;1.30;;
5277;SDS011;2662;51.194;6.614;2022-12-20T02:40:23;1.60;;;1.50;;
5277;SDS011;2662;51.194;6.614;2022-12-20T02:42:53;1.73;;;1.30;;
5277;SDS011;2662;51.194;6.614;2022-12-20T02:45:26;2.30;;;1.40;;
5277;SDS011;2662;51.194;6.614;2022-12-20T02:47:58;3.40;;;1.30;;
5277;SDS011;2662;51.194;6.614;2022-12-20T02:50:29;2.20;;;1.50;;
5277;SDS011;2662;51.194;6.614;2022-12-20T02:53:00;2.83;;;1.40;;
5277;SDS011;2662;51.194;6.614;2022-12-20T02:55:30;2.53;;;1.43;;
5277;SDS011;2662;51.194;6.614;2022-12-20T02:58:08;2.67;;;1.87;;
5277;SDS011;2662;51.194;6.614;2022-12-20T03:00:42;1.83;;;1.60;;
5277;SDS011;2662;51.194;6.614;2022-12-20T03:03:14;4.47;;;2.33;;
5277;SDS011;2662;51.194;6.614;2022-12-20T03:05:51;2.57;;;2.07;;
5277;SDS011;2662;51.194;6.614;2022-12-20T03:08:20;7.30;;;2.17;;
5277;SDS011;2662;51.194;6.614;2022-12-20T03:10:48;6.70;;;1.80;;
5277;SDS011;2662;51.194;6.614;2022-12-20T03:13:15;2.20;;;2.00;;
5277;SDS011;2662;51.194;6.614;2022-12-20T03:15:44;3.17;;;2.13;;
5277;SDS011;2662;51.194;6.614;2022-12-20T03:18:10;3.67;;;2.57;;
5277;SDS011;2662;51.194;6.614;2022-12-20T03:20:38;3.37;;;2.10;;
5277;SDS011;2662;51.194;6.614;2022-12-20T03:23:05;3.23;;;1.90;;
5277;SDS011;2662;51.194;6.614;2022-12-20T03:25:32;3.97;;;2.27;;
5277;SDS011;2662;51.194;6.614;2022-12-20T03:27:58;2.83;;;2.37;;
5277;SDS011;2662;51.194;6.614;2022-12-20T03:30:25;2.30;;;2.10;;
5277;SDS011;2662;51.194;6.614;2022-12-20T03:32:53;3.20;;;2.43;;
5277;SDS011;2662;51.194;6.614;2022-12-20T03:35:20;2.70;;;2.50;;
5277;SDS011;2662;51.194;6.614;2022-12-20T03:37:47;6.83;;;2.83;;
5277;SDS011;2662;51.194;6.614;2022-12-20T03:40:14;4.27;;;2.60;;
5277;SDS011;2662;51.194;6.614;2022-12-20T03:42:41;4.43;;;2.40;;
5277;SDS011;2662;51.194;6.614;2022-12-20T03:45:08;4.53;;;2.17;;
5277;SDS011;2662;51.194;6.614;2022-12-20T03:47:35;2.50;;;2.30;;
5277;SDS011;2662;51.194;6.614;2022-12-20T03:50:03;2.37;;;2.17;;
5277;SDS011;2662;51.194;6.614;2022-12-20T03:52:32;3.37;;;2.50;;
5277;SDS011;2662;51.194;6.614;2022-12-20T03:54:59;2.50;;;2.27;;
5277;SDS011;2662;51.194;6.614;2022-12-20T03:57:25;4.57;;;2.93;;
5277;SDS011;2662;51.194;6.614;2022-12-20T03:59:52;2.67;;;2.47;;
5277;SDS011;2662;51.194;6.614;2022-12-20T04:02:19;9.43;;;2.60;;
5277;SDS011;2662;51.194;6.614;2022-12-20T04:04:46;2.90;;;2.60;;
5277;SDS011;2662;51.194;6.614;2022-12-20T04:07:14;7.30;;;3.00;;
5277;SDS011;2662;51.194;6.614;2022-12-20T04:09:41;6.20;;;3.00;;
5277;SDS011;2662;51.194;6.614;2022-12-20T04:12:08;3.90;;;3.00;;
5277;SDS011;2662;51.194;6.614;2022-12-20T04:14:34;9.40;;;3.53;;
5277;SDS011;2662;51.194;6.614;2022-12-20T04:17:01;8.93;;;3.90;;
5277;SDS011;2662;51.194;6.614;2022-12-20T04:19:28;6.90;;;3.90;;
5277;SDS011;2662;51.194;6.614;2022-12-20T04:21:55;6.70;;;3.47;;
5277;SDS011;2662;51.194;6.614;2022-12-20T04:24:24;4.30;;;3.60;;
5277;SDS011;2662;51.194;6.614;2022-12-20T04:26:50;8.07;;;3.23;;
5277;SDS011;2662;51.194;6.614;2022-12-20T04:29:17;7.73;;;4.30;;
5277;SDS011;2662;51.194;6.614;2022-12-20T04:31:44;6.43;;;3.83;;
5277;SDS011;2662;51.194;6.614;2022-12-20T04:34:10;6.70;;;3.70;;
5277;SDS011;2662;51.194;6.614;2022-12-20T04:36:37;6.57;;;4.10;;
5277;SDS011;2662;51.194;6.614;2022-12-20T04:39:04;7.77;;;4.13;;
5277;SDS011;2662;51.194;6.614;2022-12-20T04:41:32;6.13;;;3.97;;
5277;SDS011;2662;51.194;6.614;2022-12-20T04:43:59;8.00;;;3.80;;
5277;SDS011;2662;51.194;6.614;2022-12-20T04:46:25;7.00;;;3.77;;
5277;SDS011;2662;51.194;6.614;2022-12-20T04:48:52;5.30;;;3.57;;
5277;SDS011;2662;51.194;6.614;2022-12-20T04:51:19;4.50;;;3.70;;
5277;SDS011;2662;51.194;6.614;2022-12-20T04:53:46;9.33;;;4.10;;
5277;SDS011;2662;51.194;6.614;2022-12-20T04:56:13;5.40;;;4.23;;
5277;SDS011;2662;51.194;6.614;2022-12-20T04:58:42;11.50;;;4.10;;
5277;SDS011;2662;51.194;6.614;2022-12-20T05:01:09;7.40;;;3.67;;
5277;SDS011;2662;51.194;6.614;2022-12-20T05:03:36;8.50;;;3.53;;
5277;SDS011;2662;51.194;6.614;2022-12-20T05:06:04;4.90;;;3.73;;
5277;SDS011;2662;51.194;6.614;2022-12-20T05:08:31;8.60;;;3.97;;
5277;SDS011;2662;51.194;6.614;2022-12-20T05:10:58;5.83;;;3.90;;
5277;SDS011;2662;51.194;6.614;2022-12-20T05:13:25;4.10;;;3.70;;
5277;SDS011;2662;51.194;6.614;2022-12-20T05:15:54;4.90;;;3.70;;
5277;SDS011;2662;51.194;6.614;2022-12-20T05:18:22;7.30;;;4.20;;
5277;SDS011;2662;51.194;6.614;2022-12-20T05:20:49;9.10;;;4.37;;
5277;SDS011;2662;51.194;6.614;2022-12-20T05:23:37;6.20;;;3.97;;
5277;SDS011;2662;51.194;6.614;2022-12-20T05:26:21;4.60;;;4.03;;
5277;SDS011;2662;51.194;6.614;2022-12-20T05:28:48;6.63;;;3.50;;
5277;SDS011;2662;51.194;6.614;2022-12-20T05:31:17;5.87;;;3.67;;
5277;SDS011;2662;51.194;6.614;2022-12-20T05:33:44;5.87;;;3.80;;
5277;SDS011;2662;51.194;6.614;2022-12-20T05:36:11;13.10;;;3.70;;
5277;SDS011;2662;51.194;6.614;2022-12-20T05:38:37;6.60;;;4.10;;
5277;SDS011;2662;51.194;6.614;2022-12-20T05:41:04;6.33;;;3.70;;
5277;SDS011;2662;51.194;6.614;2022-12-20T05:43:32;7.43;;;4.70;;
5277;SDS011;2662;51.194;6.614;2022-12-20T05:45:59;5.33;;;4.50;;
5277;SDS011;2662;51.194;6.614;2022-12-20T05:48:27;15.30;;;3.90;;
5277;SDS011;2662;51.194;6.614;2022-12-20T05:50:54;4.60;;;3.70;;
5277;SDS011;2662;51.194;6.614;2022-12-20T05:53:21;4.50;;;3.90;;
5277;SDS011;2662;51.194;6.614;2022-12-20T05:55:49;8.13;;;3.83;;
5277;SDS011;2662;51.194;6.614;2022-12-20T05:58:17;4.10;;;3.70;;
5277;SDS011;2662;51.194;6.614;2022-12-20T06:00:45;5.73;;;3.67;;
5277;SDS011;2662;51.194;6.614;2022-12-20T06:03:12;4.70;;;3.80;;
5277;SDS011;2662;51.194;6.614;2022-12-20T06:05:41;4.33;;;3.67;;
5277;SDS011;2662;51.194;6.614;2022-12-20T06:08:09;10.80;;;3.87;;
5277;SDS011;2662;51.194;6.614;2022-12-20T06:10:38;4.37;;;3.97;;
5277;SDS011;2662;51.194;6.614;2022-12-20T06:13:05;4.20;;;3.40;;
5277;SDS011;2662;51.194;6.614;2022-12-20T06:15:33;4.80;;;3.80;;
5277;SDS011;2662;51.194;6.614;2022-12-20T06:17:59;8.83;;;3.37;;
5277;SDS011;2662;51.194;6.614;2022-12-20T06:20:26;11.53;;;4.03;;
5277;SDS011;2662;51.194;6.614;2022-12-20T06:22:55;5.07;;;3.93;;
5277;SDS011;2662;51.194;6.614;2022-12-20T06:25:21;6.33;;;3.53;;
5277;SDS011;2662;51.194;6.614;2022-12-20T06:27:48;11.17;;;4.00;;
5277;SDS011;2662;51.194;6.614;2022-12-20T06:30:15;7.70;;;3.47;;
5277;SDS011;2662;51.194;6.614;2022-12-20T06:32:42;4.50;;;3.00;;
5277;SDS011;2662;51.194;6.614;2022-12-20T06:35:09;6.70;;;3.93;;
5277;SDS011;2662;51.194;6.614;2022-12-20T06:37:36;5.10;;;3.07;;
5277;SDS011;2662;51.194;6.614;2022-12-20T06:40:06;4.37;;;3.47;;
5277;SDS011;2662;51.194;6.614;2022-12-20T06:42:34;13.53;;;3.50;;
5277;SDS011;2662;51.194;6.614;2022-12-20T06:45:01;8.70;;;3.43;;
5277;SDS011;2662;51.194;6.614;2022-12-20T06:47:27;10.40;;;4.10;;
5277;SDS011;2662;51.194;6.614;2022-12-20T06:49:54;6.53;;;3.30;;
5277;SDS011;2662;51.194;6.614;2022-12-20T06:52:21;6.23;;;3.90;;
5277;SDS011;2662;51.194;6.614;2022-12-20T06:54:48;9.20;;;3.27;;
5277;SDS011;2662;51.194;6.614;2022-12-20T06:57:16;8.77;;;3.10;;
5277;SDS011;2662;51.194;6.614;2022-12-20T06:59:43;7.10;;;3.30;;
5277;SDS011;2662;51.194;6.614;2022-12-20T07:02:10;3.30;;;2.93;;
5277;SDS011;2662;51.194;6.614;2022-12-20T07:04:37;3.10;;;2.87;;
5277;SDS011;2662;51.194;6.614;2022-12-20T07:07:03;3.37;;;2.60;;
5277;SDS011;2662;51.194;6.614;2022-12-20T07:09:31;5.77;;;2.80;;
5277;SDS011;2662;51.194;6.614;2022-12-20T07:11:58;5.23;;;3.10;;
5277;SDS011;2662;51.194;6.614;2022-12-20T07:14:26;3.87;;;2.70;;
5277;SDS011;2662;51.194;6.614;2022-12-20T07:16:53;5.03;;;2.77;;
5277;SDS011;2662;51.194;6.614;2022-12-20T07:19:19;7.30;;;3.17;;
5277;SDS011;2662;51.194;6.614;2022-12-20T07:21:47;3.10;;;2.80;;
5277;SDS011;2662;51.194;6.614;2022-12-20T07:24:13;2.33;;;2.13;;
5277;SDS011;2662;51.194;6.614;2022-12-20T07:26:40;7.17;;;2.90;;
5277;SDS011;2662;51.194;6.614;2022-12-20T07:29:09;4.47;;;2.90;;
5277;SDS011;2662;51.194;6.614;2022-12-20T07:31:37;3.13;;;2.53;;
5277;SDS011;2662;51.194;6.614;2022-12-20T07:34:03;14.87;;;2.60;;
5277;SDS011;2662;51.194;6.614;2022-12-20T07:36:30;3.37;;;2.87;;
5277;SDS011;2662;51.194;6.614;2022-12-20T07:38:57;4.07;;;2.80;;
5277;SDS011;2662;51.194;6.614;2022-12-20T07:41:24;3.37;;;2.67;;
5277;SDS011;2662;51.194;6.614;2022-12-20T07:43:50;3.57;;;2.60;;
5277;SDS011;2662;51.194;6.614;2022-12-20T07:46:17;3.20;;;2.90;;
5277;SDS011;2662;51.194;6.614;2022-12-20T07:48:46;9.30;;;3.00;;
5277;SDS011;2662;51.194;6.614;2022-12-20T07:51:14;2.70;;;2.50;;
5277;SDS011;2662;51.194;6.614;2022-12-20T07:53:44;4.90;;;2.50;;
5277;SDS011;2662;51.194;6.614;2022-12-20T07:56:14;3.93;;;2.80;;
5277;SDS011;2662;51.194;6.614;2022-12-20T07:58:43;3.17;;;2.87;;
5277;SDS011;2662;51.194;6.614;2022-12-20T08:01:10;4.33;;;3.00;;
5277;SDS011;2662;51.194;6.614;2022-12-20T08:03:39;4.30;;;2.60;;
5277;SDS011;2662;51.194;6.614;2022-12-20T08:06:10;3.43;;;2.73;;
5277;SDS011;2662;51.194;6.614;2022-12-20T08:08:39;7.30;;;2.60;;
5277;SDS011;2662;51.194;6.614;2022-12-20T08:11:10;11.30;;;3.37;;
5277;SDS011;2662;51.194;6.614;2022-12-20T08:13:37;7.27;;;3.20;;
5277;SDS011;2662;51.194;6.614;2022-12-20T08:16:05;4.87;;;2.80;;
5277;SDS011;2662;51.194;6.614;2022-12-20T08:18:32;2.90;;;2.70;;
5277;SDS011;2662;51.194;6.614;2022-12-20T08:20:59;4.67;;;2.90;;
5277;SDS011;2662;51.194;6.614;2022-12-20T08:23:27;4.10;;;2.60;;
5277;SDS011;2662;51.194;6.614;2022-12-20T08:25:54;4.80;;;2.50;;
5277;SDS011;2662;51.194;6.614;2022-12-20T08:28:20;6.97;;;2.80;;
5277;SDS011;2662;51.194;6.614;2022-12-20T08:30:48;3.67;;;2.43;;
5277;SDS011;2662;51.194;6.614;2022-12-20T08:33:14;3.33;;;2.60;;
5277;SDS011;2662;51.194;6.614;2022-12-20T08:35:41;4.83;;;2.60;;
5277;SDS011;2662;51.194;6.614;2022-12-20T08:38:08;3.07;;;2.77;;
5277;SDS011;2662;51.194;6.614;2022-12-20T08:40:36;4.27;;;2.13;;
5277;SDS011;2662;51.194;6.614;2022-12-20T08:43:03;2.60;;;2.40;;
5277;SDS011;2662;51.194;6.614;2022-12-20T08:45:29;4.97;;;2.63;;
5277;SDS011;2662;51.194;6.614;2022-12-20T08:47:56;2.97;;;2.67;;
5277;SDS011;2662;51.194;6.614;2022-12-20T08:50:23;3.33;;;2.27;;
5277;SDS011;2662;51.194;6.614;2022-12-20T08:52:50;2.77;;;2.57;;
5277;SDS011;2662;51.194;6.614;2022-12-20T08:55:17;3.20;;;2.57;;
5277;SDS011;2662;51.194;6.614;2022-12-20T08:57:45;6.67;;;2.70;;
5277;SDS011;2662;51.194;6.614;2022-12-20T09:00:13;5.50;;;3.17;;
5277;SDS011;2662;51.194;6.614;2022-12-20T09:02:40;2.80;;;2.60;;
5277;SDS011;2662;51.194;6.614;2022-12-20T09:05:07;3.70;;;2.37;;
5277;SDS011;2662;51.194;6.614;2022-12-20T09:07:34;7.57;;;3.30;;
5277;SDS011;2662;51.194;6.614;2022-12-20T09:10:01;9.10;;;2.90;;
5277;SDS011;2662;51.194;6.614;2022-12-20T09:12:28;7.53;;;3.07;;
5277;SDS011;2662;51.194;6.614;2022-12-20T09:14:56;7.30;;;2.77;;
5277;SDS011;2662;51.194;6.614;2022-12-20T09:17:22;3.57;;;2.73;;
5277;SDS011;2662;51.194;6.614;2022-12-20T09:19:49;11.13;;;2.83;;
5277;SDS011;2662;51.194;6.614;2022-12-20T09:22:16;3.87;;;2.70;;
5277;SDS011;2662;51.194;6.614;2022-12-20T09:24:42;4.50;;;2.60;;
5277;SDS011;2662;51.194;6.614;2022-12-20T09:27:09;3.83;;;2.57;;
5277;SDS011;2662;51.194;6.614;2022-12-20T09:29:36;5.97;;;2.67;;
5277;SDS011;2662;51.194;6.614;2022-12-20T09:32:04;4.20;;;2.93;;
5277;SDS011;2662;51.194;6.614;2022-12-20T09:34:31;3.83;;;2.50;;
5277;SDS011;2662;51.194;6.614;2022-12-20T09:36:58;5.40;;;2.87;;
5277;SDS011;2662;51.194;6.614;2022-12-20T09:39:25;5.30;;;2.53;;
5277;SDS011;2662;51.194;6.614;2022-12-20T09:41:51;12.10;;;2.57;;
5277;SDS011;2662;51.194;6.614;2022-12-20T09:44:19;6.30;;;2.37;;
5277;SDS011;2662;51.194;6.614;2022-12-20T09:46:51;6.73;;;2.63;;
5277;SDS011;2662;51.194;6.614;2022-12-20T09:49:22;6.43;;;2.90;;
5277;SDS011;2662;51.194;6.614;2022-12-20T09:52:05;9.37;;;2.40;;
5277;SDS011;2662;51.194;6.614;2022-12-20T09:54:44;5.20;;;2.30;;
5277;SDS011;2662;51.194;6.614;2022-12-20T09:57:21;4.47;;;2.67;;
5277;SDS011;2662;51.194;6.614;2022-12-20T09:59:52;9.50;;;2.50;;
5277;SDS011;2662;51.194;6.614;2022-12-20T10:02:21;8.50;;;2.60;;
5277;SDS011;2662;51.194;6.614;2022-12-20T10:04:50;3.50;;;2.53;;
5277;SDS011;2662;51.194;6.614;2022-12-20T10:07:21;8.50;;;3.20;;
5277;SDS011;2662;51.194;6.614;2022-12-20T10:10:00;6.23;;;2.87;;
5277;SDS011;2662;51.194;6.614;2022-12-20T10:12:37;4.53;;;2.93;;
5277;SDS011;2662;51.194;6.614;2022-12-20T10:15:16;6.43;;;2.73;;
5277;SDS011;2662;51.194;6.614;2022-12-20T10:20:45;9.53;;;2.80;;
5277;SDS011;2662;51.194;6.614;2022-12-20T10:23:23;2.90;;;2.70;;
5277;SDS011;2662;51.194;6.614;2022-12-20T10:25:54;7.43;;;2.60;;
5277;SDS011;2662;51.194;6.614;2022-12-20T10:28:23;9.10;;;2.67;;
5277;SDS011;2662;51.194;6.614;2022-12-20T10:30:52;5.20;;;2.60;;
5277;SDS011;2662;51.194;6.614;2022-12-20T10:33:19;2.50;;;2.30;;
5277;SDS011;2662;51.194;6.614;2022-12-20T10:35:49;2.57;;;2.10;;
5277;SDS011;2662;51.194;6.614;2022-12-20T10:38:16;5.57;;;2.70;;
5277;SDS011;2662;51.194;6.614;2022-12-20T10:40:45;5.17;;;3.00;;
5277;SDS011;2662;51.194;6.614;2022-12-20T10:43:14;2.50;;;2.30;;
5277;SDS011;2662;51.194;6.614;2022-12-20T10:45:43;3.63;;;2.60;;
5277;SDS011;2662;51.194;6.614;2022-12-20T10:48:24;2.30;;;2.10;;
5277;SDS011;2662;51.194;6.614;2022-12-20T10:50:57;4.93;;;2.17;;
5277;SDS011;2662;51.194;6.614;2022-12-20T10:53:26;6.97;;;2.20;;
5277;SDS011;2662;51.194;6.614;2022-12-20T10:55:53;2.33;;;2.13;;
5277;SDS011;2662;51.194;6.614;2022-12-20T10:58:34;3.03;;;2.10;;
5277;SDS011;2662;51.194;6.614;2022-12-20T11:01:02;6.63;;;2.20;;
5277;SDS011;2662;51.194;6.614;2022-12-20T11:03:31;5.60;;;2.27;;
5277;SDS011;2662;51.194;6.614;2022-12-20T11:06:00;7.50;;;2.13;;
5277;SDS011;2662;51.194;6.614;2022-12-20T11:08:29;2.43;;;2.23;;
5277;SDS011;2662;51.194;6.614;2022-12-20T11:11:09;2.53;;;2.07;;
5277;SDS011;2662;51.194;6.614;2022-12-20T11:13:38;2.63;;;2.07;;
5277;SDS011;2662;51.194;6.614;2022-12-20T11:16:08;2.43;;;2.10;;
5277;SDS011;2662;51.194;6.614;2022-12-20T11:18:49;2.77;;;2.20;;
5277;SDS011;2662;51.194;6.614;2022-12-20T11:21:25;4.10;;;2.43;;
5277;SDS011;2662;51.194;6.614;2022-12-20T11:24:01;3.07;;;2.23;;
5277;SDS011;2662;51.194;6.614;2022-12-20T11:26:39;10.03;;;2.30;;
5277;SDS011;2662;51.194;6.614;2022-12-20T11:29:18;7.60;;;2.57;;
5277;SDS011;2662;51.194;6.614;2022-12-20T11:32:17;2.23;;;2.03;;
5277;SDS011;2662;51.194;6.614;2022-12-20T11:34:56;3.50;;;2.37;;
5277;SDS011;2662;51.194;6.614;2022-12-20T11:37:32;4.37;;;2.40;;
5277;SDS011;2662;51.194;6.614;2022-12-20T11:40:03;3.93;;;2.30;;
5277;SDS011;2662;51.194;6.614;2022-12-20T11:42:40;4.53;;;2.17;;
5277;SDS011;2662;51.194;6.614;2022-12-20T11:45:27;4.60;;;2.50;;
5277;SDS011;2662;51.194;6.614;2022-12-20T11:48:03;8.03;;;2.70;;
5277;SDS011;2662;51.194;6.614;2022-12-20T11:50:50;5.57;;;2.60;;
5277;SDS011;2662;51.194;6.614;2022-12-20T11:53:30;3.53;;;2.10;;
5277;SDS011;2662;51.194;6.614;2022-12-20T11:56:01;6.93;;;2.63;;
5277;SDS011;2662;51.194;6.614;2022-12-20T11:58:36;3.13;;;2.60;;
5277;SDS011;2662;51.194;6.614;2022-12-20T12:01:13;8.60;;;2.37;;
5277;SDS011;2662;51.194;6.614;2022-12-20T12:03:45;3.50;;;2.57;;
5277;SDS011;2662;51.194;6.614;2022-12-20T12:06:25;4.33;;;1.67;;
5277;SDS011;2662;51.194;6.614;2022-12-20T12:08:57;2.50;;;1.87;;
5277;SDS011;2662;51.194;6.614;2022-12-20T12:11:32;3.33;;;1.50;;
5277;SDS011;2662;51.194;6.614;2022-12-20T12:14:03;3.30;;;1.80;;
5277;SDS011;2662;51.194;6.614;2022-12-20T12:16:32;2.70;;;1.60;;
5277;SDS011;2662;51.194;6.614;2022-12-20T12:19:02;4.00;;;1.50;;
5277;SDS011;2662;51.194;6.614;2022-12-20T12:21:34;4.43;;;1.57;;
5277;SDS011;2662;51.194;6.614;2022-12-20T12:24:06;1.43;;;0.90;;
5277;SDS011;2662;51.194;6.614;2022-12-20T12:26:44;4.07;;;1.40;;
5277;SDS011;2662;51.194;6.614;2022-12-20T12:29:12;1.53;;;1.43;;
5277;SDS011;2662;51.194;6.614;2022-12-20T12:31:41;2.30;;;1.33;;
5277;SDS011;2662;51.194;6.614;2022-12-20T12:34:15;1.97;;;1.17;;
5277;SDS011;2662;51.194;6.614;2022-12-20T12:36:59;3.07;;;1.73;;
5277;SDS011;2662;51.194;6.614;2022-12-20T12:42:57;4.13;;;1.20;;
5277;SDS011;2662;51.194;6.614;2022-12-20T12:45:40;1.47;;;1.30;;
5277;SDS011;2662;51.194;6.614;2022-12-20T12:48:11;2.37;;;1.23;;
5277;SDS011;2662;51.194;6.614;2022-12-20T12:50:41;2.83;;;1.67;;
5277;SDS011;2662;51.194;6.614;2022-12-20T12:53:11;2.30;;;1.37;;
5277;SDS011;2662;51.194;6.614;2022-12-20T12:55:43;4.90;;;1.70;;
5277;SDS011;2662;51.194;6.614;2022-12-20T13:01:02;2.00;;;1.57;;
5277;SDS011;2662;51.194;6.614;2022-12-20T13:03:43;1.17;;;1.10;;
5277;SDS011;2662;51.194;6.614;2022-12-20T13:09:21;1.67;;;1.57;;
5277;SDS011;2662;51.194;6.614;2022-12-20T13:18:24;5.13;;;2.43;;
5277;SDS011;2662;51.194;6.614;2022-12-20T13:27:10;6.10;;;2.23;;
5277;SDS011;2662;51.194;6.614;2022-12-20T13:29:50;1.13;;;1.07;;
5277;SDS011;2662;51.194;6.614;2022-12-20T13:38:38;4.37;;;1.40;;
5277;SDS011;2662;51.194;6.614;2022-12-20T13:41:24;5.00;;;1.50;;
5277;SDS011;2662;51.194;6.614;2022-12-20T13:47:29;3.77;;;2.00;;
5277;SDS011;2662;51.194;6.614;2022-12-20T13:50:00;2.47;;;1.40;;
5277;SDS011;2662;51.194;6.614;2022-12-20T13:52:47;1.90;;;1.27;;
5277;SDS011;2662;51.194;6.614;2022-12-20T13:55:15;1.63;;;1.40;;
5277;SDS011;2662;51.194;6.614;2022-12-20T13:57:48;1.93;;;1.50;;
5277;SDS011;2662;51.194;6.614;2022-12-20T14:00:16;3.10;;;1.63;;
5277;SDS011;2662;51.194;6.614;2022-12-20T14:02:47;1.60;;;1.40;;
5277;SDS011;2662;51.194;6.614;2022-12-20T14:05:15;4.37;;;1.70;;
5277;SDS011;2662;51.194;6.614;2022-12-20T14:07:48;1.70;;;1.33;;
5277;SDS011;2662;51.194;6.614;2022-12-20T14:10:22;4.73;;;1.83;;
5277;SDS011;2662;51.194;6.614;2022-12-20T14:12:51;2.40;;;1.43;;
5277;SDS011;2662;51.194;6.614;2022-12-20T14:15:22;2.83;;;1.40;;
5277;SDS011;2662;51.194;6.614;2022-12-20T14:17:52;1.60;;;1.50;;
5277;SDS011;2662;51.194;6.614;2022-12-20T14:20:20;2.10;;;1.53;;
5277;SDS011;2662;51.194;6.614;2022-12-20T14:22:52;2.53;;;1.27;;
5277;SDS011;2662;51.194;6.614;2022-12-20T14:25:26;2.70;;;1.57;;
5277;SDS011;2662;51.194;6.614;2022-12-20T14:27:55;3.30;;;2.13;;
5277;SDS011;2662;51.194;6.614;2022-12-20T14:30:24;7.60;;;2.03;;
5277;SDS011;2662;51.194;6.614;2022-12-20T14:32:57;4.63;;;2.17;;
5277;SDS011;2662;51.194;6.614;2022-12-20T14:35:24;2.97;;;1.43;;
5277;SDS011;2662;51.194;6.614;2022-12-20T14:37:54;5.67;;;2.20;;
5277;SDS011;2662;51.194;6.614;2022-12-20T14:40:23;2.70;;;1.83;;
5277;SDS011;2662;51.194;6.614;2022-12-20T14:42:51;1.60;;;1.50;;
5277;SDS011;2662;51.194;6.614;2022-12-20T14:45:19;3.40;;;1.50;;
5277;SDS011;2662;51.194;6.614;2022-12-20T14:47:50;2.07;;;1.60;;
5277;SDS011;2662;51.194;6.614;2022-12-20T14:50:23;3.03;;;2.10;;
5277;SDS011;2662;51.194;6.614;2022-12-20T14:52:57;3.33;;;1.53;;
5277;SDS011;2662;51.194;6.614;2022-12-20T14:55:27;2.47;;;1.63;;
5277;SDS011;2662;51.194;6.614;2022-12-20T14:57:57;2.70;;;2.10;;
5277;SDS011;2662;51.194;6.614;2022-12-20T15:00:25;2.77;;;1.50;;
5277;SDS011;2662;51.194;6.614;2022-12-20T15:02:57;7.13;;;2.37;;
5277;SDS011;2662;51.194;6.614;2022-12-20T15:05:37;3.70;;;2.03;;
5277;SDS011;2662;51.194;6.614;2022-12-20T15:08:11;3.27;;;1.73;;
5277;SDS011;2662;51.194;6.614;2022-12-20T15:10:40;3.87;;;2.13;;
5277;SDS011;2662;51.194;6.614;2022-12-20T15:13:10;6.40;;;2.57;;
5277;SDS011;2662;51.194;6.614;2022-12-20T15:15:38;9.10;;;2.17;;
5277;SDS011;2662;51.194;6.614;2022-12-20T15:18:08;6.77;;;2.33;;
5277;SDS011;2662;51.194;6.614;2022-12-20T15:20:37;4.40;;;2.60;;
5277;SDS011;2662;51.194;6.614;2022-12-20T15:23:04;6.50;;;2.90;;
5277;SDS011;2662;51.194;6.614;2022-12-20T15:25:35;8.20;;;3.27;;
5277;SDS011;2662;51.194;6.614;2022-12-20T15:28:07;7.73;;;3.70;;
5277;SDS011;2662;51.194;6.614;2022-12-20T15:30:38;7.47;;;3.13;;
5277;SDS011;2662;51.194;6.614;2022-12-20T15:33:05;15.07;;;3.43;;
5277;SDS011;2662;51.194;6.614;2022-12-20T15:35:32;6.20;;;3.57;;
5277;SDS011;2662;51.194;6.614;2022-12-20T15:37:59;10.20;;;3.13;;
5277;SDS011;2662;51.194;6.614;2022-12-20T15:40:25;8.03;;;3.20;;
5277;SDS011;2662;51.194;6.614;2022-12-20T15:42:53;4.37;;;3.00;;
5277;SDS011;2662;51.194;6.614;2022-12-20T15:45:20;7.93;;;4.20;;
5277;SDS011;2662;51.194;6.614;2022-12-20T15:47:47;8.37;;;3.37;;
5277;SDS011;2662;51.194;6.614;2022-12-20T15:50:14;10.13;;;4.73;;
5277;SDS011;2662;51.194;6.614;2022-12-20T15:52:41;8.90;;;3.40;;
5277;SDS011;2662;51.194;6.614;2022-12-20T15:55:09;9.43;;;3.73;;
5277;SDS011;2662;51.194;6.614;2022-12-20T15:57:36;5.43;;;3.53;;
5277;SDS011;2662;51.194;6.614;2022-12-20T16:00:05;6.63;;;3.90;;
5277;SDS011;2662;51.194;6.614;2022-12-20T16:02:33;5.77;;;3.13;;
5277;SDS011;2662;51.194;6.614;2022-12-20T16:05:00;8.50;;;3.53;;
5277;SDS011;2662;51.194;6.614;2022-12-20T16:07:26;4.40;;;3.60;;